sensor_id;sensor_type;location;lat;lon;timestamp;pressure;altitude;pressure_sealevel;temperature;humidity
46394;BME280;32099;53.588;10.176;2023-03-13T00:00:57;99890.34;;;7.53;88.56
46394;BME280;32099;53.588;10.176;2023-03-13T00:03:23;99884.38;;;7.57;88.38
46394;BME280;32099;53.588;10.176;2023-03-13T00:05:54;99883.97;;;7.61;88.61
46394;BME280;32099;53.588;10.176;2023-03-13T00:08:20;99880.44;;;7.60;88.82
46394;BME280;32099;53.588;10.176;2023-03-13T00:10:45;99880.25;;;7.62;88.61
46394;BME280;32099;53.588;10.176;2023-03-13T00:13:11;99870.03;;;7.64;88.21
46394;BME280;32099;53.588;10.176;2023-03-13T00:15:36;99870.03;;;7.64;88.44
46394;BME280;32099;53.588;10.176;2023-03-13T00:18:01;99861.06;;;7.63;87.85
46394;BME280;32099;53.588;10.176;2023-03-13T00:20:27;99858.16;;;7.65;87.95
46394;BME280;32099;53.588;10.176;2023-03-13T00:22:53;99849.81;;;7.66;87.63
46394;BME280;32099;53.588;10.176;2023-03-13T00:25:18;99848.16;;;7.65;87.94
46394;BME280;32099;53.588;10.176;2023-03-13T00:27:44;99840.56;;;7.61;88.14
46394;BME280;32099;53.588;10.176;2023-03-13T00:30:09;99838.50;;;7.63;88.19
46394;BME280;32099;53.588;10.176;2023-03-13T00:32:42;99846.19;;;7.59;88.19
46394;BME280;32099;53.588;10.176;2023-03-13T00:35:10;99839.53;;;7.62;87.87
46394;BME280;32099;53.588;10.176;2023-03-13T00:37:35;99832.25;;;7.62;87.85
46394;BME280;32099;53.588;10.176;2023-03-13T00:40:00;99836.00;;;7.61;87.41
46394;BME280;32099;53.588;10.176;2023-03-13T00:42:26;99837.69;;;7.62;87.13
46394;BME280;32099;53.588;10.176;2023-03-13T00:44:51;99822.06;;;7.64;86.92
46394;BME280;32099;53.588;10.176;2023-03-13T00:47:16;99825.41;;;7.66;86.85
46394;BME280;32099;53.588;10.176;2023-03-13T00:49:42;99820.19;;;7.65;86.92
46394;BME280;32099;53.588;10.176;2023-03-13T00:52:07;99813.94;;;7.64;87.22
46394;BME280;32099;53.588;10.176;2023-03-13T00:54:32;99810.00;;;7.67;86.84
46394;BME280;32099;53.588;10.176;2023-03-13T00:56:58;99801.19;;;7.65;87.67
46394;BME280;32099;53.588;10.176;2023-03-13T00:59:23;99797.81;;;7.63;87.50
46394;BME280;32099;53.588;10.176;2023-03-13T01:01:48;99798.00;;;7.61;87.00
46394;BME280;32099;53.588;10.176;2023-03-13T01:04:14;99788.00;;;7.62;87.40
46394;BME280;32099;53.588;10.176;2023-03-13T01:06:39;99789.00;;;7.61;87.12
46394;BME280;32099;53.588;10.176;2023-03-13T01:09:07;99792.75;;;7.60;87.69
46394;BME280;32099;53.588;10.176;2023-03-13T01:11:34;99786.88;;;7.56;87.82
46394;BME280;32099;53.588;10.176;2023-03-13T01:14:02;99780.41;;;7.57;87.77
46394;BME280;32099;53.588;10.176;2023-03-13T01:16:31;99775.84;;;7.57;87.72
46394;BME280;32099;53.588;10.176;2023-03-13T01:18:59;99779.59;;;7.56;87.65
46394;BME280;32099;53.588;10.176;2023-03-13T01:21:27;99771.63;;;7.55;87.68
46394;BME280;32099;53.588;10.176;2023-03-13T01:23:53;99767.72;;;7.57;87.52
46394;BME280;32099;53.588;10.176;2023-03-13T01:26:19;99756.84;;;7.57;87.64
46394;BME280;32099;53.588;10.176;2023-03-13T01:28:45;99760.41;;;7.58;87.59
46394;BME280;32099;53.588;10.176;2023-03-13T01:31:12;99746.63;;;7.60;87.32
46394;BME280;32099;53.588;10.176;2023-03-13T01:33:39;99740.19;;;7.61;87.46
46394;BME280;32099;53.588;10.176;2023-03-13T01:36:05;99747.50;;;7.60;87.54
46394;BME280;32099;53.588;10.176;2023-03-13T01:38:31;99734.13;;;7.59;87.96
46394;BME280;32099;53.588;10.176;2023-03-13T01:40:56;99727.28;;;7.63;87.71
46394;BME280;32099;53.588;10.176;2023-03-13T01:43:22;99720.16;;;7.62;87.35
46394;BME280;32099;53.588;10.176;2023-03-13T01:45:57;99715.75;;;7.61;87.68
46394;BME280;32099;53.588;10.176;2023-03-13T01:48:30;99702.19;;;7.61;88.17
46394;BME280;32099;53.588;10.176;2023-03-13T01:51:13;99696.78;;;7.61;87.64
46394;BME280;32099;53.588;10.176;2023-03-13T01:54:14;99695.75;;;7.62;87.47
46394;BME280;32099;53.588;10.176;2023-03-13T01:59:16;99684.88;;;7.62;88.00
46394;BME280;32099;53.588;10.176;2023-03-13T02:01:47;99675.94;;;7.61;88.65
46394;BME280;32099;53.588;10.176;2023-03-13T02:04:17;99672.63;;;7.66;88.48
46394;BME280;32099;53.588;10.176;2023-03-13T02:06:46;99668.03;;;7.66;88.38
46394;BME280;32099;53.588;10.176;2023-03-13T02:09:19;99667.47;;;7.71;87.82
46394;BME280;32099;53.588;10.176;2023-03-13T02:12:00;99655.78;;;7.70;88.19
46394;BME280;32099;53.588;10.176;2023-03-13T02:14:29;99643.91;;;7.71;87.79
46394;BME280;32099;53.588;10.176;2023-03-13T02:16:59;99644.56;;;7.74;87.87
46394;BME280;32099;53.588;10.176;2023-03-13T02:19:41;99638.94;;;7.75;87.64
46394;BME280;32099;53.588;10.176;2023-03-13T02:22:11;99631.81;;;7.74;87.73
46394;BME280;32099;53.588;10.176;2023-03-13T02:27:33;99629.31;;;7.72;87.96
46394;BME280;32099;53.588;10.176;2023-03-13T02:29:59;99625.72;;;7.72;87.66
46394;BME280;32099;53.588;10.176;2023-03-13T02:32:25;99614.88;;;7.72;88.28
46394;BME280;32099;53.588;10.176;2023-03-13T02:34:55;99614.06;;;7.71;87.97
46394;BME280;32099;53.588;10.176;2023-03-13T02:37:26;99604.03;;;7.72;88.08
46394;BME280;32099;53.588;10.176;2023-03-13T02:39:54;99603.19;;;7.71;88.36
46394;BME280;32099;53.588;10.176;2023-03-13T02:42:24;99598.59;;;7.72;87.94
46394;BME280;32099;53.588;10.176;2023-03-13T02:44:49;99592.13;;;7.73;88.19
46394;BME280;32099;53.588;10.176;2023-03-13T02:47:17;99591.31;;;7.72;88.17
46394;BME280;32099;53.588;10.176;2023-03-13T02:49:45;99591.09;;;7.74;88.06
46394;BME280;32099;53.588;10.176;2023-03-13T02:52:13;99583.81;;;7.75;88.33
46394;BME280;32099;53.588;10.176;2023-03-13T02:54:41;99586.53;;;7.75;88.62
46394;BME280;32099;53.588;10.176;2023-03-13T02:57:09;99572.13;;;7.74;89.47
46394;BME280;32099;53.588;10.176;2023-03-13T02:59:34;99568.56;;;7.74;88.64
46394;BME280;32099;53.588;10.176;2023-03-13T03:02:00;99559.56;;;7.73;88.96
46394;BME280;32099;53.588;10.176;2023-03-13T03:04:25;99561.63;;;7.71;89.47
46394;BME280;32099;53.588;10.176;2023-03-13T03:06:51;99548.28;;;7.69;90.16
46394;BME280;32099;53.588;10.176;2023-03-13T03:09:17;99545.56;;;7.69;89.55
46394;BME280;32099;53.588;10.176;2023-03-13T03:11:44;99540.78;;;7.71;89.12
46394;BME280;32099;53.588;10.176;2023-03-13T03:14:10;99539.94;;;7.71;89.01
46394;BME280;32099;53.588;10.176;2023-03-13T03:16:36;99522.81;;;7.70;89.52
46394;BME280;32099;53.588;10.176;2023-03-13T03:19:01;99525.34;;;7.72;89.90
46394;BME280;32099;53.588;10.176;2023-03-13T03:21:27;99523.66;;;7.71;90.05
46394;BME280;32099;53.588;10.176;2023-03-13T03:23:52;99520.31;;;7.69;89.65
46394;BME280;32099;53.588;10.176;2023-03-13T03:26:18;99513.66;;;7.71;89.45
46394;BME280;32099;53.588;10.176;2023-03-13T03:28:43;99520.13;;;7.70;89.56
46394;BME280;32099;53.588;10.176;2023-03-13T03:31:09;99493.63;;;7.72;89.94
46394;BME280;32099;53.588;10.176;2023-03-13T03:33:36;99495.31;;;7.74;89.98
46394;BME280;32099;53.588;10.176;2023-03-13T03:36:04;99493.03;;;7.77;90.14
46394;BME280;32099;53.588;10.176;2023-03-13T03:38:31;99488.25;;;7.79;89.65
46394;BME280;32099;53.588;10.176;2023-03-13T03:40:57;99485.34;;;7.81;89.69
46394;BME280;32099;53.588;10.176;2023-03-13T03:43:22;99488.06;;;7.81;89.63
46394;BME280;32099;53.588;10.176;2023-03-13T03:45:48;99474.47;;;7.81;90.16
46394;BME280;32099;53.588;10.176;2023-03-13T03:48:13;99471.97;;;7.79;90.04
46394;BME280;32099;53.588;10.176;2023-03-13T03:50:38;99457.75;;;7.77;90.00
46394;BME280;32099;53.588;10.176;2023-03-13T03:53:04;99460.72;;;7.82;89.67
46394;BME280;32099;53.588;10.176;2023-03-13T03:55:29;99446.31;;;7.82;90.66
46394;BME280;32099;53.588;10.176;2023-03-13T03:57:54;99444.84;;;7.79;90.26
46394;BME280;32099;53.588;10.176;2023-03-13T04:00:20;99436.69;;;7.79;90.40
46394;BME280;32099;53.588;10.176;2023-03-13T04:02:45;99432.75;;;7.82;90.19
46394;BME280;32099;53.588;10.176;2023-03-13T04:05:11;99431.94;;;7.81;90.51
46394;BME280;32099;53.588;10.176;2023-03-13T04:07:36;99423.56;;;7.83;90.86
46394;BME280;32099;53.588;10.176;2023-03-13T04:10:02;99415.44;;;7.83;90.47
46394;BME280;32099;53.588;10.176;2023-03-13T04:12:28;99414.41;;;7.84;90.27
46394;BME280;32099;53.588;10.176;2023-03-13T04:14:53;99414.41;;;7.84;90.42
46394;BME280;32099;53.588;10.176;2023-03-13T04:17:18;99407.28;;;7.83;90.63
46394;BME280;32099;53.588;10.176;2023-03-13T04:19:44;99402.69;;;7.83;89.77
46394;BME280;32099;53.588;10.176;2023-03-13T04:22:09;99386.41;;;7.83;91.00
46394;BME280;32099;53.588;10.176;2023-03-13T04:24:34;99394.38;;;7.85;90.40
46394;BME280;32099;53.588;10.176;2023-03-13T04:27:00;99380.59;;;7.86;90.33
46394;BME280;32099;53.588;10.176;2023-03-13T04:29:27;99373.09;;;7.88;90.42
46394;BME280;32099;53.588;10.176;2023-03-13T04:31:53;99351.16;;;7.90;90.55
46394;BME280;32099;53.588;10.176;2023-03-13T04:34:18;99345.31;;;7.86;91.81
46394;BME280;32099;53.588;10.176;2023-03-13T04:36:44;99337.56;;;7.83;92.70
46394;BME280;32099;53.588;10.176;2023-03-13T04:39:09;99330.44;;;7.82;92.74
46394;BME280;32099;53.588;10.176;2023-03-13T04:41:36;99329.41;;;7.83;92.14
46394;BME280;32099;53.588;10.176;2023-03-13T04:44:01;99325.88;;;7.83;92.54
46394;BME280;32099;53.588;10.176;2023-03-13T04:46:26;99314.16;;;7.82;92.38
46394;BME280;32099;53.588;10.176;2023-03-13T04:48:52;99306.03;;;7.82;91.48
46394;BME280;32099;53.588;10.176;2023-03-13T04:51:17;99293.31;;;7.83;92.69
46394;BME280;32099;53.588;10.176;2023-03-13T04:53:42;99282.66;;;7.81;92.15
46394;BME280;32099;53.588;10.176;2023-03-13T04:56:08;99279.31;;;7.79;92.85
46394;BME280;32099;53.588;10.176;2023-03-13T04:58:35;99269.69;;;7.77;93.50
46394;BME280;32099;53.588;10.176;2023-03-13T05:01:00;99265.31;;;7.76;93.51
46394;BME280;32099;53.588;10.176;2023-03-13T05:03:25;99254.47;;;7.76;92.62
46394;BME280;32099;53.588;10.176;2023-03-13T05:05:51;99249.84;;;7.76;93.52
46394;BME280;32099;53.588;10.176;2023-03-13T05:08:16;99237.13;;;7.77;93.33
46394;BME280;32099;53.588;10.176;2023-03-13T05:10:42;99241.50;;;7.78;93.12
46394;BME280;32099;53.588;10.176;2023-03-13T05:13:07;99222.13;;;7.81;93.15
46394;BME280;32099;53.588;10.176;2023-03-13T05:15:32;99215.66;;;7.82;93.59
46394;BME280;32099;53.588;10.176;2023-03-13T05:17:58;99203.75;;;7.83;93.62
46394;BME280;32099;53.588;10.176;2023-03-13T05:20:23;99194.38;;;7.85;93.96
46394;BME280;32099;53.588;10.176;2023-03-13T05:22:48;99192.91;;;7.83;95.34
46394;BME280;32099;53.588;10.176;2023-03-13T05:25:14;99180.16;;;7.83;93.80
46394;BME280;32099;53.588;10.176;2023-03-13T05:27:39;99164.09;;;7.82;94.95
46394;BME280;32099;53.588;10.176;2023-03-13T05:30:05;99169.13;;;7.85;94.29
46394;BME280;32099;53.588;10.176;2023-03-13T05:32:31;99163.25;;;7.88;93.79
46394;BME280;32099;53.588;10.176;2023-03-13T05:35:05;99157.22;;;7.86;95.49
46394;BME280;32099;53.588;10.176;2023-03-13T05:37:31;99145.34;;;7.87;94.45
46394;BME280;32099;53.588;10.176;2023-03-13T05:39:56;99166.63;;;7.90;93.72
46394;BME280;32099;53.588;10.176;2023-03-13T05:42:21;99150.78;;;7.94;94.33
46394;BME280;32099;53.588;10.176;2023-03-13T05:44:47;99163.50;;;7.93;93.67
46394;BME280;32099;53.588;10.176;2023-03-13T05:47:12;99151.59;;;7.94;94.83
46394;BME280;32099;53.588;10.176;2023-03-13T05:49:37;99148.69;;;7.96;94.96
46394;BME280;32099;53.588;10.176;2023-03-13T05:52:03;99147.84;;;7.95;94.46
46394;BME280;32099;53.588;10.176;2023-03-13T05:54:28;99135.75;;;7.98;94.43
46394;BME280;32099;53.588;10.176;2023-03-13T05:56:53;99136.16;;;7.95;94.37
46394;BME280;32099;53.588;10.176;2023-03-13T05:59:19;99104.66;;;7.94;96.80
46394;BME280;32099;53.588;10.176;2023-03-13T06:01:44;99130.72;;;7.95;95.60
46394;BME280;32099;53.588;10.176;2023-03-13T06:04:09;99117.16;;;7.95;95.82
46394;BME280;32099;53.588;10.176;2023-03-13T06:06:35;99094.59;;;7.94;96.46
46394;BME280;32099;53.588;10.176;2023-03-13T06:09:00;99093.34;;;7.90;97.75
46394;BME280;32099;53.588;10.176;2023-03-13T06:11:25;99093.16;;;7.92;96.93
46394;BME280;32099;53.588;10.176;2023-03-13T06:13:51;99100.25;;;7.93;96.25
46394;BME280;32099;53.588;10.176;2023-03-13T06:16:16;99106.94;;;7.97;96.36
46394;BME280;32099;53.588;10.176;2023-03-13T06:18:42;99090.44;;;7.98;95.66
46394;BME280;32099;53.588;10.176;2023-03-13T06:21:07;99084.81;;;8.00;97.02
46394;BME280;32099;53.588;10.176;2023-03-13T06:23:33;99080.00;;;8.02;95.84
46394;BME280;32099;53.588;10.176;2023-03-13T06:25:59;99087.94;;;8.03;95.19
46394;BME280;32099;53.588;10.176;2023-03-13T06:28:24;99094.81;;;8.06;95.46
46394;BME280;32099;53.588;10.176;2023-03-13T06:30:49;99083.78;;;8.08;95.65
46394;BME280;32099;53.588;10.176;2023-03-13T06:33:15;99063.72;;;8.09;96.44
46394;BME280;32099;53.588;10.176;2023-03-13T06:35:40;99080.66;;;8.11;96.41
46394;BME280;32099;53.588;10.176;2023-03-13T06:38:07;99072.94;;;8.14;96.53
46394;BME280;32099;53.588;10.176;2023-03-13T06:40:33;99067.06;;;8.17;96.38
46394;BME280;32099;53.588;10.176;2023-03-13T06:42:59;99053.94;;;8.21;97.02
46394;BME280;32099;53.588;10.176;2023-03-13T06:45:24;99042.44;;;8.26;96.07
46394;BME280;32099;53.588;10.176;2023-03-13T06:47:49;99042.00;;;8.29;95.97
46394;BME280;32099;53.588;10.176;2023-03-13T06:50:16;99036.78;;;8.34;97.00
46394;BME280;32099;53.588;10.176;2023-03-13T06:52:41;99037.41;;;8.36;96.18
46394;BME280;32099;53.588;10.176;2023-03-13T06:55:07;99026.13;;;8.39;95.65
46394;BME280;32099;53.588;10.176;2023-03-13T06:57:33;99021.94;;;8.43;97.43
46394;BME280;32099;53.588;10.176;2023-03-13T06:59:58;99018.78;;;8.46;95.79
46394;BME280;32099;53.588;10.176;2023-03-13T07:02:23;99015.25;;;8.53;95.90
46394;BME280;32099;53.588;10.176;2023-03-13T07:04:49;98996.88;;;8.55;95.58
46394;BME280;32099;53.588;10.176;2023-03-13T07:07:14;98987.25;;;8.59;95.50
46394;BME280;32099;53.588;10.176;2023-03-13T07:09:39;98997.47;;;8.63;94.90
46394;BME280;32099;53.588;10.176;2023-03-13T07:12:05;99002.69;;;8.65;96.36
46394;BME280;32099;53.588;10.176;2023-03-13T07:14:30;99008.53;;;8.69;95.24
46394;BME280;32099;53.588;10.176;2023-03-13T07:16:57;98997.25;;;8.72;95.59
46394;BME280;32099;53.588;10.176;2023-03-13T07:19:23;98988.66;;;8.75;96.15
46394;BME280;32099;53.588;10.176;2023-03-13T07:21:48;99003.50;;;8.79;95.48
46394;BME280;32099;53.588;10.176;2023-03-13T07:24:14;98989.47;;;8.82;95.38
46394;BME280;32099;53.588;10.176;2023-03-13T07:26:39;98990.94;;;8.85;96.73
46394;BME280;32099;53.588;10.176;2023-03-13T07:29:04;98976.91;;;8.88;96.36
46394;BME280;32099;53.588;10.176;2023-03-13T07:31:30;98971.03;;;8.91;95.95
46394;BME280;32099;53.588;10.176;2023-03-13T07:33:57;98976.06;;;8.94;97.19
46394;BME280;32099;53.588;10.176;2023-03-13T07:36:23;98964.53;;;8.99;97.05
46394;BME280;32099;53.588;10.176;2023-03-13T07:38:49;98961.97;;;9.04;96.23
46394;BME280;32099;53.588;10.176;2023-03-13T07:41:15;98979.31;;;9.09;95.69
46394;BME280;32099;53.588;10.176;2023-03-13T07:43:40;98969.69;;;9.14;96.39
46394;BME280;32099;53.588;10.176;2023-03-13T07:46:07;98956.28;;;9.19;95.78
46394;BME280;32099;53.588;10.176;2023-03-13T07:48:35;98958.78;;;9.20;97.19
46394;BME280;32099;53.588;10.176;2023-03-13T07:51:03;98956.66;;;9.22;97.67
46394;BME280;32099;53.588;10.176;2023-03-13T07:53:30;98966.28;;;9.25;97.26
46394;BME280;32099;53.588;10.176;2023-03-13T07:55:57;98965.00;;;9.27;96.51
46394;BME280;32099;53.588;10.176;2023-03-13T07:58:25;98951.59;;;9.33;95.63
46394;BME280;32099;53.588;10.176;2023-03-13T08:00:52;98951.53;;;9.39;95.80
46394;BME280;32099;53.588;10.176;2023-03-13T08:03:22;98935.00;;;9.41;95.09
46394;BME280;32099;53.588;10.176;2023-03-13T08:06:01;98950.22;;;9.49;95.12
46394;BME280;32099;53.588;10.176;2023-03-13T08:08:29;98938.69;;;9.53;96.25
46394;BME280;32099;53.588;10.176;2023-03-13T08:10:58;98928.19;;;9.57;95.92
46394;BME280;32099;53.588;10.176;2023-03-13T08:13:31;98942.41;;;9.59;96.36
46394;BME280;32099;53.588;10.176;2023-03-13T08:16:02;98928.38;;;9.62;96.71
46394;BME280;32099;53.588;10.176;2023-03-13T08:18:29;98932.09;;;9.68;97.43
46394;BME280;32099;53.588;10.176;2023-03-13T08:20:59;98927.66;;;9.73;96.79
46394;BME280;32099;53.588;10.176;2023-03-13T08:23:25;98927.59;;;9.80;96.66
46394;BME280;32099;53.588;10.176;2023-03-13T08:25:50;98919.13;;;9.88;96.93
46394;BME280;32099;53.588;10.176;2023-03-13T08:28:19;98918.25;;;9.95;97.47
46394;BME280;32099;53.588;10.176;2023-03-13T08:30:44;98920.06;;;10.01;97.78
46394;BME280;32099;53.588;10.176;2023-03-13T08:33:09;98924.41;;;10.09;97.98
46394;BME280;32099;53.588;10.176;2023-03-13T08:35:35;98918.28;;;10.13;98.42
46394;BME280;32099;53.588;10.176;2023-03-13T08:38:00;98909.81;;;10.22;97.66
46394;BME280;32099;53.588;10.176;2023-03-13T08:40:26;98911.41;;;10.29;98.50
46394;BME280;32099;53.588;10.176;2023-03-13T08:42:52;98909.44;;;10.37;100.00
46394;BME280;32099;53.588;10.176;2023-03-13T08:45:18;98907.28;;;10.45;99.42
46394;BME280;32099;53.588;10.176;2023-03-13T08:47:43;98914.56;;;10.52;100.00
46394;BME280;32099;53.588;10.176;2023-03-13T08:50:08;98914.47;;;10.58;100.00
46394;BME280;32099;53.588;10.176;2023-03-13T08:52:34;98900.75;;;10.65;100.00
46394;BME280;32099;53.588;10.176;2023-03-13T08:54:59;98897.13;;;10.71;100.00
46394;BME280;32099;53.588;10.176;2023-03-13T08:57:24;98882.34;;;10.79;100.00
46394;BME280;32099;53.588;10.176;2023-03-13T08:59:50;98888.78;;;10.85;100.00
46394;BME280;32099;53.588;10.176;2023-03-13T09:02:15;98889.50;;;10.92;100.00
46394;BME280;32099;53.588;10.176;2023-03-13T09:04:44;98883.97;;;10.99;100.00
46394;BME280;32099;53.588;10.176;2023-03-13T09:07:09;98890.38;;;11.04;100.00
46394;BME280;32099;53.588;10.176;2023-03-13T09:09:35;98885.66;;;11.11;100.00
46394;BME280;32099;53.588;10.176;2023-03-13T09:12:00;98870.50;;;11.16;100.00
46394;BME280;32099;53.588;10.176;2023-03-13T09:14:25;98869.81;;;11.20;100.00
46394;BME280;32099;53.588;10.176;2023-03-13T09:16:50;98866.97;;;11.27;100.00
46394;BME280;32099;53.588;10.176;2023-03-13T09:19:16;98874.22;;;11.33;100.00
46394;BME280;32099;53.588;10.176;2023-03-13T09:21:41;98883.34;;;11.39;100.00
46394;BME280;32099;53.588;10.176;2023-03-13T09:24:06;98869.84;;;11.44;100.00
46394;BME280;32099;53.588;10.176;2023-03-13T09:26:32;98867.25;;;11.49;100.00
46394;BME280;32099;53.588;10.176;2023-03-13T09:28:57;98863.59;;;11.55;100.00
46394;BME280;32099;53.588;10.176;2023-03-13T09:31:24;98867.72;;;11.58;100.00
46394;BME280;32099;53.588;10.176;2023-03-13T09:33:51;98867.63;;;11.65;100.00
46394;BME280;32099;53.588;10.176;2023-03-13T09:36:17;98864.19;;;11.69;100.00
46394;BME280;32099;53.588;10.176;2023-03-13T09:38:44;98878.22;;;11.73;99.76
46394;BME280;32099;53.588;10.176;2023-03-13T09:43:43;98865.72;;;11.77;100.00
46394;BME280;32099;53.588;10.176;2023-03-13T09:46:30;98875.94;;;11.82;100.00
46394;BME280;32099;53.588;10.176;2023-03-13T09:49:09;98858.28;;;11.84;100.00
46394;BME280;32099;53.588;10.176;2023-03-13T09:51:39;98878.34;;;11.90;100.00
46394;BME280;32099;53.588;10.176;2023-03-13T09:54:18;98869.66;;;11.93;100.00
46394;BME280;32099;53.588;10.176;2023-03-13T09:56:51;98873.81;;;11.96;100.00
46394;BME280;32099;53.588;10.176;2023-03-13T09:59:28;98860.97;;;11.96;100.00
46394;BME280;32099;53.588;10.176;2023-03-13T10:01:54;98875.03;;;12.00;100.00
46394;BME280;32099;53.588;10.176;2023-03-13T10:04:27;98866.97;;;12.05;100.00
46394;BME280;32099;53.588;10.176;2023-03-13T10:06:56;98861.13;;;12.13;100.00
46394;BME280;32099;53.588;10.176;2023-03-13T10:09:23;98873.47;;;12.16;100.00
46394;BME280;32099;53.588;10.176;2023-03-13T10:12:03;98891.88;;;12.21;100.00
46394;BME280;32099;53.588;10.176;2023-03-13T10:14:59;98889.25;;;12.26;100.00
46394;BME280;32099;53.588;10.176;2023-03-13T10:17:39;98895.31;;;12.28;100.00
46394;BME280;32099;53.588;10.176;2023-03-13T10:20:21;98876.78;;;12.30;100.00
46394;BME280;32099;53.588;10.176;2023-03-13T10:25:39;98897.09;;;12.34;100.00
46394;BME280;32099;53.588;10.176;2023-03-13T10:28:07;98893.63;;;12.39;99.60
46394;BME280;32099;53.588;10.176;2023-03-13T10:30:36;98895.88;;;12.42;99.80
46394;BME280;32099;53.588;10.176;2023-03-13T10:35:35;98909.19;;;12.50;98.92
46394;BME280;32099;53.588;10.176;2023-03-13T10:38:08;98904.56;;;12.50;99.88
46394;BME280;32099;53.588;10.176;2023-03-13T10:40:36;98902.75;;;12.56;99.68
46394;BME280;32099;53.588;10.176;2023-03-13T10:43:06;98901.91;;;12.68;99.64
46394;BME280;32099;53.588;10.176;2023-03-13T10:45:38;98907.91;;;12.81;99.08
46394;BME280;32099;53.588;10.176;2023-03-13T10:48:09;98899.91;;;12.92;98.18
46394;BME280;32099;53.588;10.176;2023-03-13T10:50:40;98886.53;;;13.07;97.24
46394;BME280;32099;53.588;10.176;2023-03-13T10:55:54;98889.44;;;13.47;96.39
46394;BME280;32099;53.588;10.176;2023-03-13T10:58:34;98879.91;;;13.66;94.45
46394;BME280;32099;53.588;10.176;2023-03-13T11:01:13;98885.22;;;13.73;93.41
46394;BME280;32099;53.588;10.176;2023-03-13T11:03:42;98881.66;;;13.72;93.12
46394;BME280;32099;53.588;10.176;2023-03-13T11:06:19;98871.72;;;13.66;91.20
46394;BME280;32099;53.588;10.176;2023-03-13T11:08:58;98885.97;;;13.51;91.40
46394;BME280;32099;53.588;10.176;2023-03-13T11:11:26;98876.50;;;13.42;91.77
46394;BME280;32099;53.588;10.176;2023-03-13T11:13:55;98878.06;;;13.38;91.73
46394;BME280;32099;53.588;10.176;2023-03-13T11:16:32;98873.41;;;13.38;91.70
46394;BME280;32099;53.588;10.176;2023-03-13T11:19:20;98873.66;;;13.37;91.76
46394;BME280;32099;53.588;10.176;2023-03-13T11:21:57;98880.41;;;13.46;91.96
46394;BME280;32099;53.588;10.176;2023-03-13T11:24:38;98871.72;;;13.49;90.62
46394;BME280;32099;53.588;10.176;2023-03-13T11:27:28;98866.72;;;13.63;91.28
46394;BME280;32099;53.588;10.176;2023-03-13T11:30:17;98866.72;;;13.80;88.81
46394;BME280;32099;53.588;10.176;2023-03-13T11:38:06;98847.69;;;14.30;86.14
46394;BME280;32099;53.588;10.176;2023-03-13T11:43:42;98846.44;;;14.38;86.03
46394;BME280;32099;53.588;10.176;2023-03-13T11:46:37;98843.72;;;14.43;84.74
46394;BME280;32099;53.588;10.176;2023-03-13T11:49:28;98847.31;;;14.43;85.11
46394;BME280;32099;53.588;10.176;2023-03-13T11:54:46;98832.38;;;14.34;84.34
46394;BME280;32099;53.588;10.176;2023-03-13T11:57:26;98833.22;;;14.34;83.88
46394;BME280;32099;53.588;10.176;2023-03-13T12:03:04;98826.81;;;14.51;82.64
46394;BME280;32099;53.588;10.176;2023-03-13T12:05:44;98849.56;;;14.69;82.61
46394;BME280;32099;53.588;10.176;2023-03-13T12:13:38;98810.31;;;14.95;82.58
46394;BME280;32099;53.588;10.176;2023-03-13T12:16:08;98816.25;;;15.09;82.28
46394;BME280;32099;53.588;10.176;2023-03-13T12:18:40;98804.09;;;15.33;81.13
46394;BME280;32099;53.588;10.176;2023-03-13T12:21:18;98792.94;;;15.45;77.63
46394;BME280;32099;53.588;10.176;2023-03-13T12:24:03;98810.53;;;15.49;78.33
46394;BME280;32099;53.588;10.176;2023-03-13T12:26:50;98797.06;;;15.47;78.72
46394;BME280;32099;53.588;10.176;2023-03-13T12:34:33;98799.88;;;15.57;77.07
46394;BME280;32099;53.588;10.176;2023-03-13T12:37:22;98814.81;;;15.72;75.04
46394;BME280;32099;53.588;10.176;2023-03-13T12:42:56;98789.72;;;16.01;75.00
46394;BME280;32099;53.588;10.176;2023-03-13T12:45:29;98805.22;;;16.23;74.68
46394;BME280;32099;53.588;10.176;2023-03-13T12:48:05;98788.81;;;16.33;72.02
46394;BME280;32099;53.588;10.176;2023-03-13T12:50:58;98794.31;;;16.33;70.75
46394;BME280;32099;53.588;10.176;2023-03-13T12:56:15;98809.19;;;16.47;71.33
46394;BME280;32099;53.588;10.176;2023-03-13T12:58:53;98786.97;;;16.59;69.26
46394;BME280;32099;53.588;10.176;2023-03-13T13:03:57;98770.28;;;17.02;67.69
46394;BME280;32099;53.588;10.176;2023-03-13T13:06:29;98761.47;;;17.16;67.52
46394;BME280;32099;53.588;10.176;2023-03-13T13:09:28;98766.69;;;17.02;64.85
46394;BME280;32099;53.588;10.176;2023-03-13T13:12:17;98783.94;;;16.71;61.56
46394;BME280;32099;53.588;10.176;2023-03-13T13:17:15;98781.41;;;16.44;62.96
46394;BME280;32099;53.588;10.176;2023-03-13T13:19:51;98767.13;;;16.52;63.44
46394;BME280;32099;53.588;10.176;2023-03-13T13:25:00;98759.22;;;16.76;62.20
46394;BME280;32099;53.588;10.176;2023-03-13T13:27:51;98735.81;;;16.89;64.14
46394;BME280;32099;53.588;10.176;2023-03-13T13:32:51;98737.75;;;16.84;61.08
46394;BME280;32099;53.588;10.176;2023-03-13T13:37:52;98740.53;;;16.94;64.41
46394;BME280;32099;53.588;10.176;2023-03-13T13:43:36;98724.28;;;16.92;62.99
46394;BME280;32099;53.588;10.176;2023-03-13T13:49:05;98709.41;;;16.93;64.48
46394;BME280;32099;53.588;10.176;2023-03-13T13:52:16;98719.91;;;16.96;64.60
46394;BME280;32099;53.588;10.176;2023-03-13T13:59:48;98696.47;;;16.89;60.11
46394;BME280;32099;53.588;10.176;2023-03-13T14:02:17;98708.28;;;16.79;63.25
46394;BME280;32099;53.588;10.176;2023-03-13T14:04:48;98704.44;;;16.75;60.71
46394;BME280;32099;53.588;10.176;2023-03-13T14:07:19;98701.41;;;16.76;62.05
46394;BME280;32099;53.588;10.176;2023-03-13T14:10:13;98703.34;;;16.81;60.94
46394;BME280;32099;53.588;10.176;2023-03-13T14:12:46;98710.25;;;16.89;59.57
46394;BME280;32099;53.588;10.176;2023-03-13T14:20:51;98672.53;;;16.79;58.07